Terminal Aerodrome Forecast
Issued by NWS Green Bay, WI

Home | Current Version | Previous Version | Graphics & Text | Print | Product List | Glossary On
Versions: 1 2 3 4 5 6 7 8 9 10 11 12 13 14 15 16 17 18 19 20 21 22 23 24 25 26 27 28
000
FTUS43 KGRB 211722
TAFGRB
TAF
KGRB 211722Z 2118/2218 06005KT 1/4SM -DZ FG OVC002
     FM212300 16004KT 1/4SM -DZ FG OVC002
     FM220300 22004KT 1/4SM -DZ FG OVC002
     FM221600 VRB03KT 1/2SM FG OVC003=

USA.gov is the U.S. government's official web portal to all federal, state and local government web resources and services.